Time;durP1;ratioP1;P1;durP2;ratioP2;P2;SDS_P1;SDS_P2;PMS_P1;PMS_P2;Temp;Humidity;BMP_temperature;BMP_pressure;BME280_temperature;BME280_humidity;BME280_pressure;Samples;Min_cycle;Max_cycle;Signal;HPM_P1;HPM_P2
2022/02/03 00:00:42;;;;;;;77.22;32.92;;;;;;;;;;4988761;28;20077;-80
2022/02/03 00:05:46;;;;;;;76.32;34.20;;;;;;;;;;4970532;28;20039;-80
2022/02/03 00:24:23;;;;;;;56.40;21.58;;;;;;;;;;4970454;28;20654;-80
2022/02/03 00:27:01;;;;;;;314.60;47.00;;;;;;;;;;4989700;28;20042;-80
2022/02/03 00:30:14;;;;;;;200.55;37.47;;;;;;;;;;4979574;28;20030;-81
2022/02/03 00:35:33;;;;;;;57.07;27.53;;;;;;;;;;4928827;29;20040;-80
2022/02/03 00:38:19;;;;;;;47.63;23.70;;;;;;;;;;4982770;28;20273;-80
2022/02/03 00:49:03;;;;;;;64.80;26.48;;;;;;;;;;4984928;28;20053;-81
2022/02/03 00:51:30;;;;;;;82.35;33.13;;;;;;;;;;4970075;28;20042;-80
2022/02/03 00:53:57;;;;;;;115.07;40.70;;;;;;;;;;4930482;28;1212995;-80
2022/02/03 00:56:36;;;;;;;123.63;32.58;;;;;;;;;;4973496;28;20476;-80
2022/02/03 00:59:02;;;;;;;105.43;31.52;;;;;;;;;;4970736;28;20049;-80
2022/02/03 01:01:30;;;;;;;62.90;28.50;;;;;;;;;;4952986;28;20030;-81
2022/02/03 01:03:58;;;;;;;92.22;36.25;;;;;;;;;;4984865;28;20034;-80
2022/02/03 01:06:27;;;;;;;174.43;35.50;;;;;;;;;;4989856;28;20109;-81
2022/02/03 01:08:55;;;;;;;63.55;26.33;;;;;;;;;;4990278;28;20038;-80
2022/02/03 01:11:26;;;;;;;76.38;24.00;;;;;;;;;;4989741;28;20037;-80
2022/02/03 01:14:03;;;;;;;541.72;57.55;;;;;;;;;;4961711;28;20390;-81
2022/02/03 01:45:49;;;;;;;127.18;31.67;;;;;;;;;;4990027;28;20045;-80
2022/02/03 01:53:19;;;;;;;51.72;24.70;;;;;;;;;;4973792;28;20117;-80
2022/02/03 01:55:47;;;;;;;125.75;31.02;;;;;;;;;;4974303;28;20101;-80
2022/02/03 01:58:17;;;;;;;52.70;20.27;;;;;;;;;;4986212;28;20641;-80
2022/02/03 02:00:55;;;;;;;60.80;24.55;;;;;;;;;;4989110;28;20165;-80
2022/02/03 02:03:26;;;;;;;67.43;23.90;;;;;;;;;;4980262;28;20034;-80
2022/02/03 02:06:11;;;;;;;271.33;38.65;;;;;;;;;;4986788;28;20026;-80
2022/02/03 02:08:37;;;;;;;202.50;37.28;;;;;;;;;;4983264;28;20071;-80
2022/02/03 02:11:29;;;;;;;45.40;22.85;;;;;;;;;;4986314;28;20478;-80
2022/02/03 02:39:12;;;;;;;92.60;31.60;;;;;;;;;;4897340;29;20046;-80
2022/02/03 02:42:41;;;;;;;80.85;27.17;;;;;;;;;;4957379;28;20129;-80
2022/02/03 02:44:39;;;;;;;153.30;34.72;;;;;;;;;;4979307;28;20482;-80
2022/02/03 02:47:08;;;;;;;187.75;33.00;;;;;;;;;;4974645;28;20593;-80
2022/02/03 02:49:49;;;;;;;280.63;40.58;;;;;;;;;;4987828;28;20030;-80
2022/02/03 02:52:22;;;;;;;62.58;25.00;;;;;;;;;;4971619;28;20073;-80
2022/02/03 02:58:18;;;;;;;50.60;23.33;;;;;;;;;;4973250;28;20038;-80
2022/02/03 03:34:35;;;;;;;40.35;19.25;;;;;;;;;;4989400;28;20086;-80
2022/02/03 03:36:55;;;;;;;37.92;19.73;;;;;;;;;;4982221;28;20038;-80
2022/02/03 03:39:27;;;;;;;29.95;16.95;;;;;;;;;;4969962;28;20544;-80
2022/02/03 03:41:56;;;;;;;31.85;18.83;;;;;;;;;;4991299;28;20026;-80
2022/02/03 03:44:23;;;;;;;32.15;18.33;;;;;;;;;;4974135;28;20465;-80
2022/02/03 03:46:50;;;;;;;34.67;21.15;;;;;;;;;;4965343;28;20057;-80
2022/02/03 03:49:16;;;;;;;23.13;14.60;;;;;;;;;;4965995;28;20043;-80
2022/02/03 03:51:45;;;;;;;40.13;22.63;;;;;;;;;;4957796;28;20045;-80
2022/02/03 03:54:17;;;;;;;34.38;20.13;;;;;;;;;;4989758;28;20169;-81
2022/02/03 03:56:59;;;;;;;37.97;19.97;;;;;;;;;;4969994;28;20046;-79
2022/02/03 04:53:32;;;;;;;21.23;11.50;;;;;;;;;;4992269;28;20117;-80
2022/02/03 05:04:29;;;;;;;18.63;10.43;;;;;;;;;;4971025;28;19949;-80
2022/02/03 05:13:09;;;;;;;22.30;13.07;;;;;;;;;;4970912;28;20393;-80
2022/02/03 05:18:55;;;;;;;22.03;11.40;;;;;;;;;;4987224;28;20390;-80
2022/02/03 06:13:16;;;;;;;26.20;14.75;;;;;;;;;;4983479;28;20505;-80
2022/02/03 06:23:49;;;;;;;44.85;22.92;;;;;;;;;;4977189;28;20093;-79
2022/02/03 06:29:01;;;;;;;70.38;33.42;;;;;;;;;;4972918;28;20053;-80
2022/02/03 06:31:27;;;;;;;54.75;25.58;;;;;;;;;;4973849;28;20099;-81
2022/02/03 06:33:53;;;;;;;51.47;27.55;;;;;;;;;;4992981;28;20037;-81
2022/02/03 06:36:20;;;;;;;76.55;37.78;;;;;;;;;;4988295;28;20472;-80
2022/02/03 06:38:46;;;;;;;82.28;40.08;;;;;;;;;;4981906;28;20038;-78
2022/02/03 06:41:12;;;;;;;49.78;27.10;;;;;;;;;;4985752;28;20030;-80
2022/02/03 06:43:38;;;;;;;43.10;24.63;;;;;;;;;;4973421;28;20037;-79
2022/02/03 06:46:08;;;;;;;38.58;20.48;;;;;;;;;;4990151;28;20080;-79
2022/02/03 06:48:36;;;;;;;36.70;19.75;;;;;;;;;;4974309;28;20030;-79
2022/02/03 06:51:11;;;;;;;36.85;18.65;;;;;;;;;;4955555;28;20467;-79
2022/02/03 06:53:40;;;;;;;37.15;18.73;;;;;;;;;;4972279;28;20046;-79
2022/02/03 06:56:11;;;;;;;35.10;18.27;;;;;;;;;;4986259;28;20046;-78
2022/02/03 06:58:50;;;;;;;34.28;19.02;;;;;;;;;;4972111;28;20099;-79
2022/02/03 07:01:21;;;;;;;37.58;19.33;;;;;;;;;;4971515;28;20486;-79
2022/02/03 07:03:55;;;;;;;38.80;20.67;;;;;;;;;;4974251;28;20084;-79
2022/02/03 07:06:21;;;;;;;39.53;20.90;;;;;;;;;;4989981;28;20034;-79
2022/02/03 07:08:49;;;;;;;43.53;25.58;;;;;;;;;;4975093;28;20042;-79
2022/02/03 07:11:20;;;;;;;46.35;22.95;;;;;;;;;;4963298;28;20042;-79
2022/02/03 07:13:46;;;;;;;45.55;23.83;;;;;;;;;;4985170;28;20493;-79
2022/02/03 07:16:13;;;;;;;60.42;29.65;;;;;;;;;;4966342;28;20038;-79
2022/02/03 07:18:39;;;;;;;43.08;20.33;;;;;;;;;;4991238;28;20422;-79
2022/02/03 07:21:05;;;;;;;48.70;25.88;;;;;;;;;;4969245;28;20035;-79
2022/02/03 07:23:31;;;;;;;49.80;27.05;;;;;;;;;;4972790;28;20035;-79
2022/02/03 07:25:58;;;;;;;45.90;26.73;;;;;;;;;;4985049;28;20060;-80
2022/02/03 07:28:24;;;;;;;49.92;29.00;;;;;;;;;;4964140;28;20045;-79
2022/02/03 07:30:50;;;;;;;59.80;32.65;;;;;;;;;;4982683;28;20712;-80
2022/02/03 07:33:16;;;;;;;46.53;25.33;;;;;;;;;;4988164;28;20035;-79
2022/02/03 07:35:45;;;;;;;51.55;29.77;;;;;;;;;;4983702;28;20811;-79
2022/02/03 07:38:11;;;;;;;81.13;30.10;;;;;;;;;;4962591;28;20027;-79
2022/02/03 07:40:37;;;;;;;63.50;27.52;;;;;;;;;;4970221;28;20042;-79
2022/02/03 07:43:06;;;;;;;218.57;41.85;;;;;;;;;;4969458;28;20117;-79
2022/02/03 07:45:33;;;;;;;355.45;56.20;;;;;;;;;;4973438;28;20145;-79
2022/02/03 07:47:59;;;;;;;408.15;74.00;;;;;;;;;;4962871;28;20054;-80
2022/02/03 07:50:25;;;;;;;139.75;41.67;;;;;;;;;;4973015;28;20034;-79
2022/02/03 07:52:51;;;;;;;79.60;33.33;;;;;;;;;;4985647;28;20049;-79
2022/02/03 07:55:17;;;;;;;168.52;49.88;;;;;;;;;;4988416;28;20493;-80
2022/02/03 07:57:47;;;;;;;71.82;31.23;;;;;;;;;;4964945;28;20038;-79
2022/02/03 08:00:14;;;;;;;88.03;32.67;;;;;;;;;;4967245;28;20121;-79
2022/02/03 08:02:42;;;;;;;99.07;36.55;;;;;;;;;;4956162;28;20355;-79
2022/02/03 08:05:10;;;;;;;82.38;32.20;;;;;;;;;;4971167;28;20101;-80
2022/02/03 08:07:47;;;;;;;100.53;35.58;;;;;;;;;;4987654;28;20122;-79
2022/02/03 08:10:27;;;;;;;95.18;37.13;;;;;;;;;;4978796;28;20030;-80
2022/02/03 08:12:53;;;;;;;99.35;36.88;;;;;;;;;;4965287;28;20045;-80
2022/02/03 08:15:22;;;;;;;196.43;52.53;;;;;;;;;;4963785;28;20425;-80
2022/02/03 08:17:49;;;;;;;286.15;67.97;;;;;;;;;;4973323;28;20811;-80
2022/02/03 08:20:18;;;;;;;139.15;46.55;;;;;;;;;;4989270;28;20042;-79
2022/02/03 08:22:52;;;;;;;122.57;45.40;;;;;;;;;;4970654;28;20045;-79
2022/02/03 08:25:23;;;;;;;142.63;47.10;;;;;;;;;;4963104;28;20038;-78
2022/02/03 08:33:01;;;;;;;79.68;37.60;;;;;;;;;;4978197;28;20082;-79
2022/02/03 08:35:42;;;;;;;68.15;35.83;;;;;;;;;;4963669;28;20031;-79
2022/02/03 08:43:19;;;;;;;61.08;33.70;;;;;;;;;;4976486;28;20825;-79
2022/02/03 08:45:45;;;;;;;79.55;33.78;;;;;;;;;;4984636;28;20830;-80
2022/02/03 08:48:12;;;;;;;59.15;33.38;;;;;;;;;;4975735;28;20030;-80
2022/02/03 08:50:39;;;;;;;66.28;38.85;;;;;;;;;;4970871;28;20035;-80
2022/02/03 08:53:10;;;;;;;50.60;29.45;;;;;;;;;;4970553;28;20066;-79
2022/02/03 09:57:18;;;;;;;28.48;18.95;;;;;;;;;;4974491;28;20090;-79
2022/02/03 10:02:20;;;;;;;;;;;;;;;;;;4987372;28;20045;-79
2022/02/03 10:04:50;;;;;;;28.33;17.52;;;;;;;;;;4987309;28;19922;-79
2022/02/03 10:07:21;;;;;;;28.75;17.40;;;;;;;;;;4980909;28;20034;-79
2022/02/03 10:09:48;;;;;;;28.67;15.68;;;;;;;;;;4984817;28;20042;-79
2022/02/03 10:12:14;;;;;;;25.98;16.45;;;;;;;;;;4991743;28;20744;-79
2022/02/03 10:14:42;;;;;;;34.33;18.90;;;;;;;;;;4979957;28;20488;-79
2022/02/03 10:17:08;;;;;;;26.67;16.50;;;;;;;;;;4992645;28;20030;-80
2022/02/03 10:19:37;;;;;;;27.58;15.85;;;;;;;;;;4988703;28;20035;-80
2022/02/03 10:22:11;;;;;;;27.58;15.63;;;;;;;;;;4985630;28;20032;-79
2022/02/03 10:24:38;;;;;;;25.70;16.50;;;;;;;;;;4992552;28;20571;-80
2022/02/03 10:27:04;;;;;;;26.33;17.48;;;;;;;;;;4993266;28;20030;-80
2022/02/03 10:29:46;;;;;;;27.80;16.75;;;;;;;;;;4969224;28;20084;-80
2022/02/03 10:32:12;;;;;;;28.50;17.10;;;;;;;;;;4988358;28;20062;-80
2022/02/03 10:34:43;;;;;;;31.02;19.52;;;;;;;;;;4984013;28;20487;-80
2022/02/03 10:50:13;;;;;;;22.33;14.15;;;;;;;;;;4991367;28;20101;-79
2022/02/03 10:55:39;;;;;;;21.23;12.50;;;;;;;;;;4972730;28;20089;-80
2022/02/03 10:58:24;;;;;;;22.77;13.88;;;;;;;;;;4989717;28;20034;-80
2022/02/03 11:08:54;;;;;;;20.02;12.50;;;;;;;;;;4976685;28;20062;-80
2022/02/03 11:11:24;;;;;;;22.45;13.45;;;;;;;;;;4982707;28;20030;-80
2022/02/03 11:13:51;;;;;;;23.27;12.45;;;;;;;;;;4954932;28;20031;-80
2022/02/03 11:16:18;;;;;;;22.40;13.13;;;;;;;;;;4983768;28;20039;-80
2022/02/03 11:18:47;;;;;;;19.25;12.40;;;;;;;;;;4986806;28;20031;-79
2022/02/03 11:21:15;;;;;;;22.10;13.02;;;;;;;;;;4977146;28;20030;-80
2022/02/03 11:23:59;;;;;;;22.25;13.80;;;;;;;;;;4971178;28;20080;-80
2022/02/03 11:26:35;;;;;;;26.55;15.93;;;;;;;;;;4965526;28;20034;-80
2022/02/03 11:56:23;;;;;;;31.90;17.98;;;;;;;;;;4978539;28;20132;-80
2022/02/03 11:59:18;;;;;;;29.77;18.90;;;;;;;;;;4971775;28;20042;-80
2022/02/03 12:04:53;;;;;;;30.63;19.90;;;;;;;;;;4974841;28;20425;-80
2022/02/03 12:07:35;;;;;;;29.08;18.20;;;;;;;;;;4972006;28;20634;-80
2022/02/03 12:10:45;;;;;;;32.70;18.65;;;;;;;;;;4975195;28;20054;-80
2022/02/03 12:16:23;;;;;;;30.10;18.40;;;;;;;;;;4984397;28;20049;-80
2022/02/03 12:21:39;;;;;;;29.48;20.90;;;;;;;;;;4982970;28;20034;-80
2022/02/03 12:27:04;;;;;;;28.88;17.35;;;;;;;;;;4973790;28;20040;-80
2022/02/03 12:29:42;;;;;;;25.15;16.30;;;;;;;;;;4985369;28;20081;-80
2022/02/03 12:32:27;;;;;;;23.90;15.40;;;;;;;;;;4985345;28;20034;-79
2022/02/03 12:40:51;;;;;;;23.95;14.43;;;;;;;;;;4981270;28;20045;-80
2022/02/03 12:45:46;;;;;;;19.83;13.05;;;;;;;;;;4983011;28;20081;-80
2022/02/03 12:48:12;;;;;;;17.38;12.30;;;;;;;;;;4981241;28;20027;-80
2022/02/03 12:50:40;;;;;;;20.23;11.40;;;;;;;;;;4971098;28;20045;-80
2022/02/03 12:53:07;;;;;;;21.50;12.88;;;;;;;;;;4975131;28;20076;-80
2022/02/03 12:55:40;;;;;;;22.20;12.43;;;;;;;;;;4987903;28;20062;-80
2022/02/03 12:58:12;;;;;;;21.65;11.75;;;;;;;;;;4970347;28;20133;-80
2022/02/03 13:00:43;;;;;;;23.58;13.88;;;;;;;;;;4959689;28;20045;-80
2022/02/03 13:03:10;;;;;;;22.93;13.97;;;;;;;;;;4986666;28;20058;-79
2022/02/03 13:05:38;;;;;;;20.38;13.30;;;;;;;;;;4956947;28;20277;-80
2022/02/03 13:08:06;;;;;;;28.38;15.13;;;;;;;;;;4981787;28;20474;-80
2022/02/03 13:10:35;;;;;;;23.95;13.82;;;;;;;;;;4956718;28;20069;-80
2022/02/03 13:13:15;;;;;;;25.60;13.80;;;;;;;;;;4963980;28;20474;-80
2022/02/03 13:15:43;;;;;;;23.40;15.38;;;;;;;;;;4974237;28;20031;-80
2022/02/03 13:18:20;;;;;;;24.00;15.48;;;;;;;;;;4978210;28;20035;-79
2022/02/03 13:21:00;;;;;;;23.58;14.48;;;;;;;;;;4977013;28;20030;-80
2022/02/03 13:23:28;;;;;;;19.15;13.85;;;;;;;;;;4990318;28;20117;-80
2022/02/03 13:26:07;;;;;;;26.08;14.80;;;;;;;;;;4961401;28;20031;-80
2022/02/03 13:28:50;;;;;;;19.50;13.13;;;;;;;;;;4976987;28;20125;-80
2022/02/03 13:31:25;;;;;;;;;;;;;;;;;;4975114;28;20058;-79
2022/02/03 13:36:32;;;;;;;26.92;14.45;;;;;;;;;;4974624;28;20382;-80
2022/02/03 13:39:13;;;;;;;24.13;14.30;;;;;;;;;;4963988;28;20030;-80
2022/02/03 13:41:42;;;;;;;20.60;13.15;;;;;;;;;;4978292;28;20491;-80
2022/02/03 13:44:10;;;;;;;25.75;14.50;;;;;;;;;;4977690;28;20022;-80
2022/02/03 13:46:43;;;;;;;23.85;16.48;;;;;;;;;;4969016;28;20026;-80
2022/02/03 13:49:16;;;;;;;19.85;13.48;;;;;;;;;;4986533;28;20544;-80
2022/02/03 13:51:45;;;;;;;25.23;15.68;;;;;;;;;;4969331;28;20450;-80
2022/02/03 13:54:41;;;;;;;27.65;16.80;;;;;;;;;;4991822;28;20041;-80
2022/02/03 14:12:08;;;;;;;25.80;16.55;;;;;;;;;;4941917;29;20131;-80
2022/02/03 14:14:27;;;;;;;25.15;17.02;;;;;;;;;;4939972;29;20043;-80
2022/02/03 14:20:08;;;;;;;25.02;16.38;;;;;;;;;;4918192;29;20091;-79
2022/02/03 14:22:57;;;;;;;20.90;15.20;;;;;;;;;;4949273;29;20039;-80
2022/02/03 14:28:01;;;;;;;21.05;14.27;;;;;;;;;;4936441;29;20074;-80
2022/02/03 14:30:28;;;;;;;21.42;15.85;;;;;;;;;;4957048;28;20887;-80
2022/02/03 14:32:57;;;;;;;21.00;14.48;;;;;;;;;;4934460;29;20399;-80
2022/02/03 14:35:23;;;;;;;21.80;16.40;;;;;;;;;;4949218;29;20042;-80
2022/02/03 14:42:54;;;;;;;24.25;17.50;;;;;;;;;;4943015;28;20107;-80
2022/02/03 14:45:20;;;;;;;24.02;16.42;;;;;;;;;;4942347;29;20040;-80
2022/02/03 14:47:46;;;;;;;23.00;17.38;;;;;;;;;;4939579;29;20042;-80
2022/02/03 14:50:13;;;;;;;27.90;18.95;;;;;;;;;;4943708;28;20031;-81
2022/02/03 14:58:05;;;;;;;27.25;16.95;;;;;;;;;;4986461;28;20129;-80
2022/02/03 15:00:32;;;;;;;24.88;16.67;;;;;;;;;;4983040;28;20114;-80
2022/02/03 15:03:00;;;;;;;27.02;18.00;;;;;;;;;;4990458;28;20035;-80
2022/02/03 15:05:31;;;;;;;23.75;16.52;;;;;;;;;;4976894;28;20105;-80
2022/02/03 15:07:59;;;;;;;22.90;16.42;;;;;;;;;;4968604;28;20038;-80
2022/02/03 15:13:03;;;;;;;24.90;15.50;;;;;;;;;;4976612;28;20062;-80
2022/02/03 15:15:29;;;;;;;26.02;17.58;;;;;;;;;;4983886;28;20026;-80
2022/02/03 15:17:55;;;;;;;25.10;17.50;;;;;;;;;;4986290;28;20039;-79
2022/02/03 15:20:22;;;;;;;24.42;17.75;;;;;;;;;;4987942;28;20044;-80
2022/02/03 15:22:48;;;;;;;28.27;18.30;;;;;;;;;;4980691;28;20033;-80
2022/02/03 15:25:14;;;;;;;27.80;16.88;;;;;;;;;;4989401;28;20468;-80
2022/02/03 15:27:40;;;;;;;26.30;16.38;;;;;;;;;;4972595;28;20030;-80
2022/02/03 15:30:07;;;;;;;30.20;18.30;;;;;;;;;;4961202;28;20085;-80
2022/02/03 15:32:39;;;;;;;29.55;19.08;;;;;;;;;;4988087;28;20038;-80
2022/02/03 15:35:08;;;;;;;31.13;20.45;;;;;;;;;;4991647;28;20030;-79
2022/02/03 15:37:34;;;;;;;85.60;57.83;;;;;;;;;;4988789;28;20065;-80
2022/02/03 15:40:05;;;;;;;38.50;24.40;;;;;;;;;;4966308;28;20043;-80
2022/02/03 15:42:38;;;;;;;31.42;20.65;;;;;;;;;;4979649;28;20019;-80
2022/02/03 15:45:05;;;;;;;29.10;18.80;;;;;;;;;;4961236;28;20388;-80
2022/02/03 15:47:37;;;;;;;26.67;20.27;;;;;;;;;;4985200;28;20027;-80
2022/02/03 16:14:30;;;;;;;37.38;27.52;;;;;;;;;;4983167;28;20513;-79
2022/02/03 16:19:46;;;;;;;35.08;25.42;;;;;;;;;;4945752;28;20105;-80
2022/02/03 16:25:02;;;;;;;32.90;22.98;;;;;;;;;;4982450;28;20077;-80
2022/02/03 16:54:18;;;;;;;44.53;30.13;;;;;;;;;;4975383;28;20125;-80
2022/02/03 16:56:46;;;;;;;54.13;32.05;;;;;;;;;;4978381;28;20041;-80
2022/02/03 16:59:12;;;;;;;47.72;33.25;;;;;;;;;;4987114;28;20474;-79
2022/02/03 17:01:38;;;;;;;50.83;32.65;;;;;;;;;;4985996;28;20022;-79
2022/02/03 17:04:04;;;;;;;46.58;30.38;;;;;;;;;;4973330;28;20045;-80
2022/02/03 17:06:30;;;;;;;54.40;37.33;;;;;;;;;;4969928;28;20082;-80
2022/02/03 17:08:56;;;;;;;47.72;34.92;;;;;;;;;;4971910;28;20390;-80
2022/02/03 17:11:22;;;;;;;57.78;34.55;;;;;;;;;;4969411;28;20030;-80
2022/02/03 17:13:48;;;;;;;51.90;34.92;;;;;;;;;;4981340;28;20125;-79
2022/02/03 17:16:22;;;;;;;52.50;34.30;;;;;;;;;;4981413;28;20057;-79
2022/02/03 17:18:50;;;;;;;49.47;33.70;;;;;;;;;;4981524;28;20034;-79
2022/02/03 17:21:16;;;;;;;52.95;35.78;;;;;;;;;;4954567;28;20027;-79
2022/02/03 17:23:43;;;;;;;51.72;37.33;;;;;;;;;;4979867;28;20026;-79
2022/02/03 17:26:15;;;;;;;60.72;38.38;;;;;;;;;;4975703;28;20355;-79
2022/02/03 17:28:58;;;;;;;55.10;37.08;;;;;;;;;;4981031;28;20038;-80
2022/02/03 17:31:46;;;;;;;60.78;38.13;;;;;;;;;;4978070;28;20082;-78
2022/02/03 18:07:20;;;;;;;34.00;20.10;;;;;;;;;;4976085;28;20065;-79
2022/02/03 18:09:44;;;;;;;38.80;24.83;;;;;;;;;;4978468;28;20046;-80
2022/02/03 18:17:50;;;;;;;34.33;23.23;;;;;;;;;;4980946;28;20113;-81
2022/02/03 18:52:02;;;;;;;110.85;62.67;;;;;;;;;;4959512;28;20409;-79
2022/02/03 18:57:11;;;;;;;69.07;39.40;;;;;;;;;;4977225;28;20503;-79
2022/02/03 19:22:36;;;;;;;20.92;13.00;;;;;;;;;;4983999;28;20057;-79
2022/02/03 20:05:20;;;;;;;17.52;11.00;;;;;;;;;;4979335;28;20049;-79
2022/02/03 20:07:58;;;;;;;14.37;8.60;;;;;;;;;;4968497;28;20066;-80
2022/02/03 20:10:29;;;;;;;16.67;10.40;;;;;;;;;;4983642;28;20055;-80
2022/02/03 20:12:55;;;;;;;24.13;12.75;;;;;;;;;;4979711;28;20058;-79
2022/02/03 20:15:23;;;;;;;20.48;13.32;;;;;;;;;;4979973;28;20470;-79
2022/02/03 20:17:49;;;;;;;26.00;13.25;;;;;;;;;;4979213;28;20370;-79
2022/02/03 20:20:15;;;;;;;27.65;15.82;;;;;;;;;;4978565;28;20059;-79
2022/02/03 20:22:42;;;;;;;20.98;13.55;;;;;;;;;;4986825;28;20052;-79
2022/02/03 20:25:09;;;;;;;18.58;10.43;;;;;;;;;;4986986;28;20030;-79
2022/02/03 20:27:35;;;;;;;25.13;14.52;;;;;;;;;;4978834;28;20030;-79
2022/02/03 20:30:02;;;;;;;20.13;12.82;;;;;;;;;;4992561;28;20112;-79
2022/02/03 20:32:29;;;;;;;20.15;11.32;;;;;;;;;;4998870;28;20568;-79
2022/02/03 20:35:00;;;;;;;20.77;12.77;;;;;;;;;;4994816;28;20031;-80
2022/02/03 20:37:26;;;;;;;21.75;13.32;;;;;;;;;;4972540;28;20488;-79
2022/02/03 20:39:52;;;;;;;33.00;18.05;;;;;;;;;;4987719;28;20108;-78
2022/02/03 20:42:18;;;;;;;27.60;17.70;;;;;;;;;;4983557;28;20033;-79
2022/02/03 20:44:45;;;;;;;25.83;14.35;;;;;;;;;;4998957;28;20042;-79
2022/02/03 20:47:12;;;;;;;22.65;13.30;;;;;;;;;;4971550;28;20546;-80
2022/02/03 20:49:38;;;;;;;21.10;13.82;;;;;;;;;;4980619;28;20034;-79
2022/02/03 20:52:04;;;;;;;19.02;11.73;;;;;;;;;;4988009;28;20073;-79
2022/02/03 20:54:30;;;;;;;16.92;9.55;;;;;;;;;;5001315;28;20307;-79
2022/02/03 20:56:57;;;;;;;18.33;8.45;;;;;;;;;;4978282;28;20172;-80
2022/02/03 20:59:28;;;;;;;19.08;11.52;;;;;;;;;;4978538;28;20425;-80
2022/02/03 21:01:56;;;;;;;25.63;16.48;;;;;;;;;;4981018;28;20030;-79
2022/02/03 21:04:36;;;;;;;25.85;14.57;;;;;;;;;;4984220;28;20077;-80
2022/02/03 21:07:04;;;;;;;22.65;13.40;;;;;;;;;;4980643;28;20034;-79
2022/02/03 21:09:31;;;;;;;23.98;13.55;;;;;;;;;;4987619;28;20034;-79
2022/02/03 21:11:57;;;;;;;22.92;11.30;;;;;;;;;;4981030;28;20508;-80
2022/02/03 21:14:23;;;;;;;17.10;10.93;;;;;;;;;;4972813;28;20037;-80
2022/02/03 21:16:52;;;;;;;16.42;10.50;;;;;;;;;;4988538;28;20390;-80
2022/02/03 21:19:18;;;;;;;22.73;13.20;;;;;;;;;;4979547;28;20044;-80
2022/02/03 21:21:44;;;;;;;27.63;16.52;;;;;;;;;;4983391;28;20037;-80
2022/02/03 21:24:10;;;;;;;26.67;17.48;;;;;;;;;;4981707;28;20038;-79
2022/02/03 21:26:39;;;;;;;28.27;16.67;;;;;;;;;;4972165;28;20774;-80
2022/02/03 21:29:06;;;;;;;30.88;18.92;;;;;;;;;;4975662;28;20105;-80
2022/02/03 21:31:32;;;;;;;25.85;14.93;;;;;;;;;;4976541;28;20033;-80
2022/02/03 21:33:58;;;;;;;23.60;14.30;;;;;;;;;;4994252;28;20058;-80
2022/02/03 21:36:32;;;;;;;27.55;15.77;;;;;;;;;;4976339;28;20061;-80
2022/02/03 21:38:58;;;;;;;25.45;15.90;;;;;;;;;;4978990;28;20033;-79
2022/02/03 21:41:24;;;;;;;25.33;15.10;;;;;;;;;;4983573;28;20035;-79
2022/02/03 21:43:50;;;;;;;23.67;14.43;;;;;;;;;;4984692;28;20129;-80
2022/02/03 21:46:17;;;;;;;25.98;16.08;;;;;;;;;;4990814;28;20109;-80
2022/02/03 21:48:48;;;;;;;24.55;15.25;;;;;;;;;;4977962;28;20031;-80
2022/02/03 21:51:14;;;;;;;28.13;18.02;;;;;;;;;;4988388;28;20031;-80
2022/02/03 21:53:40;;;;;;;31.58;18.85;;;;;;;;;;4968261;28;20124;-80
2022/02/03 21:56:06;;;;;;;31.17;19.02;;;;;;;;;;4975823;28;20058;-80
2022/02/03 21:58:32;;;;;;;33.08;20.65;;;;;;;;;;4973711;28;20046;-80
2022/02/03 22:00:59;;;;;;;31.63;19.38;;;;;;;;;;4991681;28;20369;-80
2022/02/03 22:03:30;;;;;;;27.58;17.30;;;;;;;;;;4975080;28;20477;-80
2022/02/03 22:05:57;;;;;;;28.45;15.10;;;;;;;;;;4984770;28;20458;-80
2022/02/03 22:08:23;;;;;;;23.95;15.90;;;;;;;;;;4982731;28;20036;-80
2022/02/03 22:10:50;;;;;;;19.98;12.18;;;;;;;;;;4974944;28;20035;-80
2022/02/03 22:13:16;;;;;;;22.80;13.02;;;;;;;;;;4972713;28;20628;-80
2022/02/03 22:15:43;;;;;;;22.33;13.23;;;;;;;;;;4965186;28;20030;-80
2022/02/03 22:18:15;;;;;;;23.98;13.50;;;;;;;;;;4993119;28;20038;-80
2022/02/03 22:20:52;;;;;;;21.88;13.70;;;;;;;;;;4976746;28;20031;-80
2022/02/03 22:24:28;;;;;;;89.85;44.05;;;;;;;;;;4972216;28;20031;-80
2022/02/03 22:45:22;;;;;;;32.40;17.90;;;;;;;;;;4976663;28;20045;-80
2022/02/03 22:50:18;;;;;;;62.75;35.47;;;;;;;;;;4973616;28;20042;-80
2022/02/03 22:52:44;;;;;;;179.63;81.25;;;;;;;;;;4986348;28;20872;-80
2022/02/03 22:55:10;;;;;;;95.90;45.33;;;;;;;;;;4992269;28;20101;-80
2022/02/03 22:57:36;;;;;;;89.07;44.50;;;;;;;;;;4973476;28;20374;-80
2022/02/03 23:00:13;;;;;;;69.65;40.40;;;;;;;;;;4992049;28;20533;-80
2022/02/03 23:02:39;;;;;;;63.50;36.83;;;;;;;;;;4984353;28;20030;-79
2022/02/03 23:05:06;;;;;;;65.63;38.10;;;;;;;;;;4992331;28;20058;-79
2022/02/03 23:10:24;;;;;;;75.80;46.45;;;;;;;;;;4972891;28;20061;-80
2022/02/03 23:17:53;;;;;;;85.80;57.70;;;;;;;;;;4981343;28;20050;-80
2022/02/03 23:20:23;;;;;;;63.58;39.78;;;;;;;;;;4967083;28;20493;-80
2022/02/03 23:22:50;;;;;;;51.47;33.65;;;;;;;;;;4991947;28;20105;-79
2022/02/03 23:25:19;;;;;;;50.72;31.02;;;;;;;;;;4986909;28;20031;-79
2022/02/03 23:30:19;;;;;;;48.65;31.88;;;;;;;;;;4975546;28;20049;-79
2022/02/03 23:32:45;;;;;;;46.35;32.22;;;;;;;;;;4987089;28;20039;-79
2022/02/03 23:37:41;;;;;;;51.85;30.58;;;;;;;;;;4992598;28;20073;-79
2022/02/03 23:41:11;;;;;;;39.20;23.10;;;;;;;;;;4973841;28;20085;-80
2022/02/03 23:45:59;;;;;;;66.15;43.75;;;;;;;;;;4992627;28;19914;-79
